Terminal Aerodrome Forecast
Issued by NWS Tallahassee, FL

Current Version | Previous Version | Text Only | Print | Product List | Glossary On
Versions: 1 2 3 4 5 6 7 8 9 10 11 12 13 14 15
257
FTUS42 KTAE 291158 CCA
TAFTLH
TAF COR
KTLH 291158Z 2912/3012 00000KT 2SM BR SCT050
      TEMPO 2912/2913 1/2SM FG
     FM291300 13007KT P6SM BKN040
     FM291700 16013G18KT P6SM SCT040=

USA.gov is the U.S. government's official web portal to all federal, state and local government web resources and services.